sensor_id;sensor_type;location;lat;lon;timestamp;P1;durP1;ratioP1;P2;durP2;ratioP2
33148;SDS011;19506;51.040;3.856;2022-10-17T14:26:53;12.05;;;5.85;;
33148;SDS011;19506;51.040;3.856;2022-10-17T14:31:48;21.93;;;5.40;;
33148;SDS011;19506;51.040;3.856;2022-10-17T14:34:22;24.60;;;5.88;;
33148;SDS011;19506;51.040;3.856;2022-10-17T14:36:52;19.27;;;5.13;;
33148;SDS011;19506;51.040;3.856;2022-10-17T14:39:20;17.80;;;5.10;;
33148;SDS011;19506;51.040;3.856;2022-10-17T14:41:49;15.52;;;5.03;;
33148;SDS011;19506;51.040;3.856;2022-10-17T14:44:25;22.88;;;5.45;;
33148;SDS011;19506;51.040;3.856;2022-10-17T14:46:56;26.17;;;6.05;;
33148;SDS011;19506;51.040;3.856;2022-10-17T14:49:41;28.08;;;5.53;;
33148;SDS011;19506;51.040;3.856;2022-10-17T14:54:45;33.20;;;5.82;;
33148;SDS011;19506;51.040;3.856;2022-10-17T14:57:17;22.52;;;5.30;;
33148;SDS011;19506;51.040;3.856;2022-10-17T14:59:51;26.15;;;6.03;;
33148;SDS011;19506;51.040;3.856;2022-10-17T15:02:17;20.48;;;5.03;;
33148;SDS011;19506;51.040;3.856;2022-10-17T15:04:43;20.45;;;5.40;;
33148;SDS011;19506;51.040;3.856;2022-10-17T15:07:15;21.98;;;5.88;;
33148;SDS011;19506;51.040;3.856;2022-10-17T15:09:42;27.73;;;5.55;;
33148;SDS011;19506;51.040;3.856;2022-10-17T15:12:15;23.92;;;5.00;;
33148;SDS011;19506;51.040;3.856;2022-10-17T15:14:42;25.00;;;5.35;;
33148;SDS011;19506;51.040;3.856;2022-10-17T15:17:13;18.05;;;4.88;;
33148;SDS011;19506;51.040;3.856;2022-10-17T15:19:40;20.90;;;5.68;;
33148;SDS011;19506;51.040;3.856;2022-10-17T15:22:06;19.50;;;6.13;;
33148;SDS011;19506;51.040;3.856;2022-10-17T15:24:32;26.85;;;5.93;;
33148;SDS011;19506;51.040;3.856;2022-10-17T15:26:57;28.25;;;4.70;;
33148;SDS011;19506;51.040;3.856;2022-10-17T15:29:23;20.70;;;5.57;;
33148;SDS011;19506;51.040;3.856;2022-10-17T15:31:48;21.52;;;5.22;;
33148;SDS011;19506;51.040;3.856;2022-10-17T15:34:14;24.35;;;4.82;;
33148;SDS011;19506;51.040;3.856;2022-10-17T15:36:40;21.75;;;4.88;;
33148;SDS011;19506;51.040;3.856;2022-10-17T15:39:12;27.25;;;5.32;;
33148;SDS011;19506;51.040;3.856;2022-10-17T15:41:37;23.70;;;4.80;;
33148;SDS011;19506;51.040;3.856;2022-10-17T15:44:03;21.83;;;4.95;;
33148;SDS011;19506;51.040;3.856;2022-10-17T15:46:29;15.70;;;4.05;;
33148;SDS011;19506;51.040;3.856;2022-10-17T15:49:00;14.85;;;4.55;;
33148;SDS011;19506;51.040;3.856;2022-10-17T15:51:27;20.38;;;4.28;;
33148;SDS011;19506;51.040;3.856;2022-10-17T15:53:53;18.85;;;5.38;;
33148;SDS011;19506;51.040;3.856;2022-10-17T15:56:26;16.42;;;4.22;;
33148;SDS011;19506;51.040;3.856;2022-10-17T15:58:54;18.07;;;4.57;;
33148;SDS011;19506;51.040;3.856;2022-10-17T16:01:22;26.20;;;5.25;;
33148;SDS011;19506;51.040;3.856;2022-10-17T16:03:53;15.07;;;4.38;;
33148;SDS011;19506;51.040;3.856;2022-10-17T16:06:20;24.17;;;5.38;;
33148;SDS011;19506;51.040;3.856;2022-10-17T16:08:46;24.92;;;6.13;;
33148;SDS011;19506;51.040;3.856;2022-10-17T16:14:02;21.00;;;4.68;;
33148;SDS011;19506;51.040;3.856;2022-10-17T16:16:30;26.65;;;6.57;;
33148;SDS011;19506;51.040;3.856;2022-10-17T16:18:56;16.23;;;5.97;;
33148;SDS011;19506;51.040;3.856;2022-10-17T16:21:23;30.70;;;7.85;;
33148;SDS011;19506;51.040;3.856;2022-10-17T16:23:51;25.23;;;6.57;;
33148;SDS011;19506;51.040;3.856;2022-10-17T16:26:17;24.98;;;6.35;;
33148;SDS011;19506;51.040;3.856;2022-10-17T16:28:43;24.92;;;8.23;;
33148;SDS011;19506;51.040;3.856;2022-10-17T16:31:29;23.45;;;6.45;;
33148;SDS011;19506;51.040;3.856;2022-10-17T16:33:58;31.70;;;7.93;;
33148;SDS011;19506;51.040;3.856;2022-10-17T16:36:25;26.08;;;7.50;;
33148;SDS011;19506;51.040;3.856;2022-10-17T16:38:51;28.48;;;6.90;;
33148;SDS011;19506;51.040;3.856;2022-10-17T16:41:24;25.17;;;6.75;;
33148;SDS011;19506;51.040;3.856;2022-10-17T16:43:50;31.13;;;9.70;;
33148;SDS011;19506;51.040;3.856;2022-10-17T16:46:17;27.55;;;8.32;;
33148;SDS011;19506;51.040;3.856;2022-10-17T16:48:44;32.22;;;9.15;;
33148;SDS011;19506;51.040;3.856;2022-10-17T16:51:10;24.35;;;6.82;;
33148;SDS011;19506;51.040;3.856;2022-10-17T16:53:37;28.13;;;7.40;;
33148;SDS011;19506;51.040;3.856;2022-10-17T16:56:08;24.58;;;6.75;;
33148;SDS011;19506;51.040;3.856;2022-10-17T16:58:35;36.70;;;8.63;;
33148;SDS011;19506;51.040;3.856;2022-10-17T17:01:02;24.70;;;7.28;;
33148;SDS011;19506;51.040;3.856;2022-10-17T17:03:29;30.42;;;7.43;;
33148;SDS011;19506;51.040;3.856;2022-10-17T17:05:54;27.35;;;8.82;;
33148;SDS011;19506;51.040;3.856;2022-10-17T17:08:20;22.33;;;7.10;;
33148;SDS011;19506;51.040;3.856;2022-10-17T17:10:47;28.38;;;8.15;;
33148;SDS011;19506;51.040;3.856;2022-10-17T17:13:15;23.75;;;8.18;;
33148;SDS011;19506;51.040;3.856;2022-10-17T17:15:41;19.17;;;7.53;;
33148;SDS011;19506;51.040;3.856;2022-10-17T17:18:07;29.15;;;7.80;;
33148;SDS011;19506;51.040;3.856;2022-10-17T17:20:32;27.48;;;6.75;;
33148;SDS011;19506;51.040;3.856;2022-10-17T17:22:58;31.98;;;7.90;;
33148;SDS011;19506;51.040;3.856;2022-10-17T17:25:24;25.30;;;7.68;;
33148;SDS011;19506;51.040;3.856;2022-10-17T17:27:50;27.15;;;6.93;;
33148;SDS011;19506;51.040;3.856;2022-10-17T17:30:15;24.55;;;7.20;;
33148;SDS011;19506;51.040;3.856;2022-10-17T17:32:41;26.42;;;7.18;;
33148;SDS011;19506;51.040;3.856;2022-10-17T17:35:07;24.77;;;6.88;;
33148;SDS011;19506;51.040;3.856;2022-10-17T17:37:33;23.30;;;8.15;;
33148;SDS011;19506;51.040;3.856;2022-10-17T17:39:59;28.75;;;7.00;;
33148;SDS011;19506;51.040;3.856;2022-10-17T17:42:25;35.63;;;8.02;;
33148;SDS011;19506;51.040;3.856;2022-10-17T17:44:51;37.25;;;6.80;;
33148;SDS011;19506;51.040;3.856;2022-10-17T17:47:17;23.20;;;7.80;;
33148;SDS011;19506;51.040;3.856;2022-10-17T17:49:43;29.45;;;6.80;;
33148;SDS011;19506;51.040;3.856;2022-10-17T17:52:08;22.23;;;6.35;;
33148;SDS011;19506;51.040;3.856;2022-10-17T17:54:34;26.63;;;6.25;;
33148;SDS011;19506;51.040;3.856;2022-10-17T17:57:00;27.98;;;6.72;;
33148;SDS011;19506;51.040;3.856;2022-10-17T17:59:25;29.42;;;7.13;;
33148;SDS011;19506;51.040;3.856;2022-10-17T18:01:51;21.20;;;6.22;;
33148;SDS011;19506;51.040;3.856;2022-10-17T18:04:16;21.00;;;5.80;;
33148;SDS011;19506;51.040;3.856;2022-10-17T18:06:42;26.13;;;6.18;;
33148;SDS011;19506;51.040;3.856;2022-10-17T18:09:08;27.35;;;6.53;;
33148;SDS011;19506;51.040;3.856;2022-10-17T18:11:35;27.42;;;6.30;;
33148;SDS011;19506;51.040;3.856;2022-10-17T18:14:02;31.65;;;7.30;;
33148;SDS011;19506;51.040;3.856;2022-10-17T18:16:30;39.03;;;7.05;;
33148;SDS011;19506;51.040;3.856;2022-10-17T18:18:57;34.13;;;6.13;;
33148;SDS011;19506;51.040;3.856;2022-10-17T18:21:24;28.45;;;6.70;;
33148;SDS011;19506;51.040;3.856;2022-10-17T18:23:50;39.63;;;7.97;;
33148;SDS011;19506;51.040;3.856;2022-10-17T18:26:16;36.83;;;8.00;;
33148;SDS011;19506;51.040;3.856;2022-10-17T18:28:42;31.52;;;6.68;;
33148;SDS011;19506;51.040;3.856;2022-10-17T18:31:18;28.50;;;8.15;;
33148;SDS011;19506;51.040;3.856;2022-10-17T18:33:52;29.27;;;6.05;;
33148;SDS011;19506;51.040;3.856;2022-10-17T18:36:21;30.55;;;5.95;;
33148;SDS011;19506;51.040;3.856;2022-10-17T18:38:47;20.17;;;5.70;;
33148;SDS011;19506;51.040;3.856;2022-10-17T18:41:14;26.30;;;6.32;;
33148;SDS011;19506;51.040;3.856;2022-10-17T18:43:43;24.60;;;6.32;;
33148;SDS011;19506;51.040;3.856;2022-10-17T18:46:11;24.83;;;5.88;;
33148;SDS011;19506;51.040;3.856;2022-10-17T18:48:39;25.90;;;6.80;;
33148;SDS011;19506;51.040;3.856;2022-10-17T18:51:06;19.25;;;5.47;;
33148;SDS011;19506;51.040;3.856;2022-10-17T18:53:33;28.00;;;6.40;;
33148;SDS011;19506;51.040;3.856;2022-10-17T18:55:59;25.95;;;6.63;;
33148;SDS011;19506;51.040;3.856;2022-10-17T18:58:27;19.98;;;5.75;;
33148;SDS011;19506;51.040;3.856;2022-10-17T19:00:53;46.88;;;8.63;;
33148;SDS011;19506;51.040;3.856;2022-10-17T19:03:19;24.92;;;6.45;;
33148;SDS011;19506;51.040;3.856;2022-10-17T19:05:44;25.38;;;7.20;;
33148;SDS011;19506;51.040;3.856;2022-10-17T19:08:11;34.60;;;6.57;;
33148;SDS011;19506;51.040;3.856;2022-10-17T19:10:39;28.50;;;6.50;;
33148;SDS011;19506;51.040;3.856;2022-10-17T19:13:06;33.25;;;7.47;;
33148;SDS011;19506;51.040;3.856;2022-10-17T19:15:36;48.65;;;9.38;;
33148;SDS011;19506;51.040;3.856;2022-10-17T19:18:02;29.75;;;5.70;;
33148;SDS011;19506;51.040;3.856;2022-10-17T19:20:28;38.22;;;5.45;;
33148;SDS011;19506;51.040;3.856;2022-10-17T19:22:53;35.08;;;6.25;;
33148;SDS011;19506;51.040;3.856;2022-10-17T19:25:19;28.85;;;5.88;;
33148;SDS011;19506;51.040;3.856;2022-10-17T19:27:45;18.38;;;5.15;;
33148;SDS011;19506;51.040;3.856;2022-10-17T19:30:10;22.35;;;6.43;;
33148;SDS011;19506;51.040;3.856;2022-10-17T19:32:36;21.40;;;6.03;;
33148;SDS011;19506;51.040;3.856;2022-10-17T19:35:03;22.65;;;5.68;;
